sensor_id;sensor_type;location;lat;lon;timestamp;pressure;altitude;pressure_sealevel;temperature;humidity
23433;BME280;41331;45.412;10.992;2023-01-28T00:00:07;100988.13;;;3.15;76.27
23433;BME280;41331;45.412;10.992;2023-01-28T00:02:35;100990.53;;;3.11;76.02
23433;BME280;41331;45.412;10.992;2023-01-28T00:05:03;100988.41;;;3.13;75.39
23433;BME280;41331;45.412;10.992;2023-01-28T00:07:31;100990.81;;;3.15;74.33
23433;BME280;41331;45.412;10.992;2023-01-28T00:09:58;100987.06;;;3.26;73.95
23433;BME280;41331;45.412;10.992;2023-01-28T00:12:25;100988.72;;;3.32;73.98
23433;BME280;41331;45.412;10.992;2023-01-28T00:14:53;100982.53;;;3.26;72.05
23433;BME280;41331;45.412;10.992;2023-01-28T00:17:20;100976.88;;;3.28;72.25
23433;BME280;41331;45.412;10.992;2023-01-28T00:19:47;100986.03;;;3.27;72.78
23433;BME280;41331;45.412;10.992;2023-01-28T00:22:15;100979.84;;;3.26;72.25
23433;BME280;41331;45.412;10.992;2023-01-28T00:24:42;100991.97;;;3.39;72.59
23433;BME280;41331;45.412;10.992;2023-01-28T00:27:10;100990.34;;;3.38;72.85
23433;BME280;41331;45.412;10.992;2023-01-28T00:29:39;100994.66;;;3.39;71.26
23433;BME280;41331;45.412;10.992;2023-01-28T00:32:07;101000.31;;;3.37;72.00
23433;BME280;41331;45.412;10.992;2023-01-28T00:34:34;101001.63;;;3.40;72.06
23433;BME280;41331;45.412;10.992;2023-01-28T00:37:06;101001.41;;;3.47;72.42
23433;BME280;41331;45.412;10.992;2023-01-28T00:39:33;101000.03;;;3.49;72.26
23433;BME280;41331;45.412;10.992;2023-01-28T00:42:01;101005.97;;;3.56;71.85
23433;BME280;41331;45.412;10.992;2023-01-28T00:44:28;101013.22;;;3.56;72.17
23433;BME280;41331;45.412;10.992;2023-01-28T00:46:55;101008.94;;;3.55;71.97
23433;BME280;41331;45.412;10.992;2023-01-28T00:49:23;101008.94;;;3.55;70.92
23433;BME280;41331;45.412;10.992;2023-01-28T00:52:09;101010.28;;;3.52;71.01
23433;BME280;41331;45.412;10.992;2023-01-28T00:54:36;101010.53;;;3.51;72.01
23433;BME280;41331;45.412;10.992;2023-01-28T00:57:04;101009.72;;;3.55;70.84
23433;BME280;41331;45.412;10.992;2023-01-28T00:59:31;101006.81;;;3.57;71.70
23433;BME280;41331;45.412;10.992;2023-01-28T01:01:58;101010.81;;;3.59;70.67
23433;BME280;41331;45.412;10.992;2023-01-28T01:04:39;101008.41;;;3.58;70.64
23433;BME280;41331;45.412;10.992;2023-01-28T01:07:07;101009.50;;;3.57;69.27
23433;BME280;41331;45.412;10.992;2023-01-28T01:09:34;101013.25;;;3.61;69.19
23433;BME280;41331;45.412;10.992;2023-01-28T01:12:02;101020.50;;;3.60;68.94
23433;BME280;41331;45.412;10.992;2023-01-28T01:14:30;101023.47;;;3.64;69.11
23433;BME280;41331;45.412;10.992;2023-01-28T01:16:57;101017.00;;;3.60;70.12
23433;BME280;41331;45.412;10.992;2023-01-28T01:19:24;101022.97;;;3.67;68.80
23433;BME280;41331;45.412;10.992;2023-01-28T01:21:55;101017.59;;;3.77;69.62
23433;BME280;41331;45.412;10.992;2023-01-28T01:24:23;101029.69;;;3.75;69.57
23433;BME280;41331;45.412;10.992;2023-01-28T01:26:50;101024.84;;;3.72;69.63
23433;BME280;41331;45.412;10.992;2023-01-28T01:29:18;101021.31;;;3.66;69.79
23433;BME280;41331;45.412;10.992;2023-01-28T01:31:45;101021.31;;;3.66;70.17
23433;BME280;41331;45.412;10.992;2023-01-28T01:34:13;101018.91;;;3.64;70.21
23433;BME280;41331;45.412;10.992;2023-01-28T01:36:41;101011.63;;;3.60;70.54
23433;BME280;41331;45.412;10.992;2023-01-28T01:39:13;101014.06;;;3.61;70.69
23433;BME280;41331;45.412;10.992;2023-01-28T01:41:40;101019.16;;;3.48;70.64
23433;BME280;41331;45.412;10.992;2023-01-28T01:47:14;101021.28;;;3.35;69.70
23433;BME280;41331;45.412;10.992;2023-01-28T01:49:43;101022.34;;;3.40;69.55
23433;BME280;41331;45.412;10.992;2023-01-28T01:52:17;101025.84;;;3.40;68.86
23433;BME280;41331;45.412;10.992;2023-01-28T01:54:48;101027.47;;;3.41;69.53
23433;BME280;41331;45.412;10.992;2023-01-28T01:57:21;101023.47;;;3.49;69.91
23433;BME280;41331;45.412;10.992;2023-01-28T01:59:50;101019.41;;;3.51;70.09
23433;BME280;41331;45.412;10.992;2023-01-28T02:02:18;101025.66;;;3.62;70.84
23433;BME280;41331;45.412;10.992;2023-01-28T02:04:45;101026.44;;;3.57;70.99
23433;BME280;41331;45.412;10.992;2023-01-28T02:07:17;101026.16;;;3.54;71.73
23433;BME280;41331;45.412;10.992;2023-01-28T02:09:45;101029.94;;;3.53;71.11
23433;BME280;41331;45.412;10.992;2023-01-28T02:12:17;101024.53;;;3.48;70.36
23433;BME280;41331;45.412;10.992;2023-01-28T02:15:10;101018.34;;;3.47;70.14
23433;BME280;41331;45.412;10.992;2023-01-28T02:17:36;101026.69;;;3.51;69.54
23433;BME280;41331;45.412;10.992;2023-01-28T02:20:10;101024.78;;;3.51;71.67
23433;BME280;41331;45.412;10.992;2023-01-28T02:23:03;101021.84;;;3.53;71.03
23433;BME280;41331;45.412;10.992;2023-01-28T02:25:57;101020.50;;;3.55;69.76
23433;BME280;41331;45.412;10.992;2023-01-28T02:31:18;101022.41;;;3.65;71.05
23433;BME280;41331;45.412;10.992;2023-01-28T02:34:17;101026.69;;;3.66;71.81
23433;BME280;41331;45.412;10.992;2023-01-28T02:39:24;101025.66;;;3.62;71.64
23433;BME280;41331;45.412;10.992;2023-01-28T02:41:57;101031.56;;;3.59;72.20
23433;BME280;41331;45.412;10.992;2023-01-28T02:44:28;101029.38;;;3.51;71.38
23433;BME280;41331;45.412;10.992;2023-01-28T02:46:55;101029.38;;;3.46;72.28
23433;BME280;41331;45.412;10.992;2023-01-28T02:49:47;101026.41;;;3.42;72.77
23433;BME280;41331;45.412;10.992;2023-01-28T03:03:59;101015.06;;;3.25;76.59
23433;BME280;41331;45.412;10.992;2023-01-28T03:06:36;101016.41;;;3.22;75.46
23433;BME280;41331;45.412;10.992;2023-01-28T03:09:08;101010.50;;;3.30;76.09
23433;BME280;41331;45.412;10.992;2023-01-28T03:15:23;100993.25;;;3.16;77.55
23433;BME280;41331;45.412;10.992;2023-01-28T03:18:14;101001.84;;;3.08;79.46
23433;BME280;41331;45.412;10.992;2023-01-28T03:21:11;100994.88;;;3.17;79.68
23433;BME280;41331;45.412;10.992;2023-01-28T03:24:31;100991.59;;;3.05;79.38
23433;BME280;41331;45.412;10.992;2023-01-28T03:30:24;100984.06;;;3.02;78.91
23433;BME280;41331;45.412;10.992;2023-01-28T03:33:23;100976.53;;;2.99;78.08
23433;BME280;41331;45.412;10.992;2023-01-28T03:36:10;100977.63;;;3.08;77.37
23433;BME280;41331;45.412;10.992;2023-01-28T03:38:56;100974.91;;;2.98;77.56
23433;BME280;41331;45.412;10.992;2023-01-28T03:41:25;100966.84;;;2.98;77.56
23433;BME280;41331;45.412;10.992;2023-01-28T03:43:55;100973.09;;;3.19;77.08
23433;BME280;41331;45.412;10.992;2023-01-28T03:46:22;100967.47;;;3.35;75.83
23433;BME280;41331;45.412;10.992;2023-01-28T03:48:50;100974.69;;;3.20;76.95
23433;BME280;41331;45.412;10.992;2023-01-28T03:51:18;100981.97;;;3.19;77.12
23433;BME280;41331;45.412;10.992;2023-01-28T03:53:46;100982.19;;;3.02;77.71
23433;BME280;41331;45.412;10.992;2023-01-28T03:56:13;101000.25;;;3.12;78.70
23433;BME280;41331;45.412;10.992;2023-01-28T03:58:44;101009.66;;;3.20;79.16
23433;BME280;41331;45.412;10.992;2023-01-28T04:01:19;101005.34;;;3.08;80.05
23433;BME280;41331;45.412;10.992;2023-01-28T04:03:47;101002.91;;;3.02;81.02
23433;BME280;41331;45.412;10.992;2023-01-28T04:06:21;101000.47;;;3.00;81.67
23433;BME280;41331;45.412;10.992;2023-01-28T04:08:51;100998.81;;;2.94;81.28
23433;BME280;41331;45.412;10.992;2023-01-28T04:11:30;101005.31;;;2.98;80.46
23433;BME280;41331;45.412;10.992;2023-01-28T04:14:01;101012.28;;;2.99;80.65
23433;BME280;41331;45.412;10.992;2023-01-28T04:16:40;101005.56;;;2.97;80.24
23433;BME280;41331;45.412;10.992;2023-01-28T04:19:09;101024.13;;;2.98;79.22
23433;BME280;41331;45.412;10.992;2023-01-28T04:21:38;101019.50;;;2.83;79.03
23433;BME280;41331;45.412;10.992;2023-01-28T04:24:06;101010.06;;;2.86;78.50
23433;BME280;41331;45.412;10.992;2023-01-28T04:26:34;101013.88;;;2.95;78.94
23433;BME280;41331;45.412;10.992;2023-01-28T04:29:03;101027.59;;;2.94;78.69
23433;BME280;41331;45.412;10.992;2023-01-28T04:31:33;101031.88;;;2.90;78.63
23433;BME280;41331;45.412;10.992;2023-01-28T04:34:19;101039.69;;;2.91;78.55
23433;BME280;41331;45.412;10.992;2023-01-28T04:36:53;101045.63;;;2.93;78.52
23433;BME280;41331;45.412;10.992;2023-01-28T04:39:41;101037.53;;;2.88;77.65
23433;BME280;41331;45.412;10.992;2023-01-28T04:42:38;101034.84;;;2.88;77.33
23433;BME280;41331;45.412;10.992;2023-01-28T04:45:10;101033.50;;;2.91;76.29
23433;BME280;41331;45.412;10.992;2023-01-28T04:47:58;101036.50;;;3.04;75.77
23433;BME280;41331;45.412;10.992;2023-01-28T04:50:44;101031.72;;;3.11;75.58
23433;BME280;41331;45.412;10.992;2023-01-28T04:53:25;101029.22;;;2.95;75.60
23433;BME280;41331;45.412;10.992;2023-01-28T04:55:57;101041.91;;;3.09;75.22
23433;BME280;41331;45.412;10.992;2023-01-28T04:58:27;101047.53;;;2.98;75.76
23433;BME280;41331;45.412;10.992;2023-01-28T05:00:59;101051.78;;;2.89;76.42
23433;BME280;41331;45.412;10.992;2023-01-28T05:03:27;101055.16;;;2.69;79.03
23433;BME280;41331;45.412;10.992;2023-01-28T05:05:55;101052.44;;;2.64;79.37
23433;BME280;41331;45.412;10.992;2023-01-28T05:08:38;101054.09;;;2.70;78.83
23433;BME280;41331;45.412;10.992;2023-01-28T05:11:06;101055.00;;;2.91;77.52
23433;BME280;41331;45.412;10.992;2023-01-28T05:13:33;101056.13;;;3.00;76.73
23433;BME280;41331;45.412;10.992;2023-01-28T05:16:02;101067.13;;;2.93;76.58
23433;BME280;41331;45.412;10.992;2023-01-28T05:18:30;101054.47;;;2.89;76.60
23433;BME280;41331;45.412;10.992;2023-01-28T05:21:08;101070.59;;;2.89;76.60
23433;BME280;41331;45.412;10.992;2023-01-28T05:23:38;101078.16;;;2.92;76.62
23433;BME280;41331;45.412;10.992;2023-01-28T05:26:06;101072.13;;;2.74;76.53
23433;BME280;41331;45.412;10.992;2023-01-28T05:28:52;101073.22;;;2.78;76.62
23433;BME280;41331;45.412;10.992;2023-01-28T05:31:19;101070.84;;;2.82;76.04
23433;BME280;41331;45.412;10.992;2023-01-28T05:33:47;101079.44;;;2.84;75.62
23433;BME280;41331;45.412;10.992;2023-01-28T05:36:15;101085.03;;;2.72;76.48
23433;BME280;41331;45.412;10.992;2023-01-28T05:38:43;101083.59;;;2.59;78.29
23433;BME280;41331;45.412;10.992;2023-01-28T05:41:11;101076.84;;;2.52;78.41
23433;BME280;41331;45.412;10.992;2023-01-28T05:43:40;101077.31;;;2.44;78.93
23433;BME280;41331;45.412;10.992;2023-01-28T05:46:19;101091.47;;;2.34;78.55
23433;BME280;41331;45.412;10.992;2023-01-28T05:49:17;101093.06;;;2.30;79.15
23433;BME280;41331;45.412;10.992;2023-01-28T05:51:54;101101.34;;;2.23;80.06
23433;BME280;41331;45.412;10.992;2023-01-28T05:54:23;101106.03;;;2.06;81.53
23433;BME280;41331;45.412;10.992;2023-01-28T05:56:51;101114.81;;;1.96;82.71
23433;BME280;41331;45.412;10.992;2023-01-28T05:59:18;101116.75;;;2.01;84.15
23433;BME280;41331;45.412;10.992;2023-01-28T06:01:48;101126.41;;;2.02;84.33
23433;BME280;41331;45.412;10.992;2023-01-28T06:04:16;101128.06;;;2.08;84.61
23433;BME280;41331;45.412;10.992;2023-01-28T06:06:46;101127.47;;;2.01;84.83
23433;BME280;41331;45.412;10.992;2023-01-28T06:09:14;101131.50;;;2.03;84.52
23433;BME280;41331;45.412;10.992;2023-01-28T06:11:42;101131.19;;;2.00;84.44
23433;BME280;41331;45.412;10.992;2023-01-28T06:14:11;101131.78;;;2.02;85.67
23433;BME280;41331;45.412;10.992;2023-01-28T06:16:57;101140.72;;;2.13;86.07
23433;BME280;41331;45.412;10.992;2023-01-28T06:19:44;101134.38;;;1.92;86.15
23433;BME280;41331;45.412;10.992;2023-01-28T06:22:12;101146.22;;;1.96;87.29
23433;BME280;41331;45.412;10.992;2023-01-28T06:24:39;101140.19;;;1.84;87.65
23433;BME280;41331;45.412;10.992;2023-01-28T06:27:07;101152.41;;;1.96;87.59
23433;BME280;41331;45.412;10.992;2023-01-28T06:29:35;101134.25;;;1.81;87.51
23433;BME280;41331;45.412;10.992;2023-01-28T06:32:02;101158.97;;;1.84;87.90
23433;BME280;41331;45.412;10.992;2023-01-28T06:34:30;101161.38;;;1.85;88.69
23433;BME280;41331;45.412;10.992;2023-01-28T06:36:58;101167.34;;;1.87;88.44
23433;BME280;41331;45.412;10.992;2023-01-28T06:39:25;101159.56;;;1.91;87.62
23433;BME280;41331;45.412;10.992;2023-01-28T06:41:55;101172.00;;;1.97;87.32
23433;BME280;41331;45.412;10.992;2023-01-28T06:44:23;101161.75;;;1.94;87.61
23433;BME280;41331;45.412;10.992;2023-01-28T06:46:50;101169.06;;;1.98;88.30
23433;BME280;41331;45.412;10.992;2023-01-28T06:49:18;101165.63;;;2.03;87.33
23433;BME280;41331;45.412;10.992;2023-01-28T06:51:47;101176.91;;;2.05;87.21
23433;BME280;41331;45.412;10.992;2023-01-28T06:54:14;101162.81;;;1.93;88.21
23433;BME280;41331;45.412;10.992;2023-01-28T06:56:42;101168.03;;;2.04;87.02
23433;BME280;41331;45.412;10.992;2023-01-28T06:59:10;101174.22;;;2.05;88.55
23433;BME280;41331;45.412;10.992;2023-01-28T07:01:38;101169.38;;;2.02;88.03
23433;BME280;41331;45.412;10.992;2023-01-28T07:04:05;101172.34;;;2.05;87.19
23433;BME280;41331;45.412;10.992;2023-01-28T07:06:33;101170.28;;;2.13;86.94
23433;BME280;41331;45.412;10.992;2023-01-28T07:09:01;101179.72;;;2.20;88.08
23433;BME280;41331;45.412;10.992;2023-01-28T07:11:28;101191.28;;;2.21;88.70
23433;BME280;41331;45.412;10.992;2023-01-28T07:13:55;101185.25;;;2.36;87.96
23433;BME280;41331;45.412;10.992;2023-01-28T07:16:23;101183.00;;;2.54;86.43
23433;BME280;41331;45.412;10.992;2023-01-28T07:18:51;101195.41;;;2.60;86.52
23433;BME280;41331;45.412;10.992;2023-01-28T07:21:18;101182.53;;;2.63;86.29
23433;BME280;41331;45.412;10.992;2023-01-28T07:23:46;101177.53;;;2.76;85.32
23433;BME280;41331;45.412;10.992;2023-01-28T07:26:13;101192.28;;;3.16;84.25
23433;BME280;41331;45.412;10.992;2023-01-28T07:28:41;101188.25;;;3.76;80.90
23433;BME280;41331;45.412;10.992;2023-01-28T07:31:09;101180.06;;;4.49;77.05
23433;BME280;41331;45.412;10.992;2023-01-28T07:33:36;101189.28;;;5.64;71.30
23433;BME280;41331;45.412;10.992;2023-01-28T07:36:04;101187.16;;;6.10;67.51
23433;BME280;41331;45.412;10.992;2023-01-28T07:38:32;101187.72;;;6.46;64.89
23433;BME280;41331;45.412;10.992;2023-01-28T07:40:59;101196.00;;;6.60;63.79
23433;BME280;41331;45.412;10.992;2023-01-28T07:43:27;101191.13;;;6.91;61.91
23433;BME280;41331;45.412;10.992;2023-01-28T07:45:54;101191.34;;;6.66;61.96
23433;BME280;41331;45.412;10.992;2023-01-28T07:48:21;101190.88;;;7.41;60.76
23433;BME280;41331;45.412;10.992;2023-01-28T07:50:49;101197.69;;;7.62;58.62
23433;BME280;41331;45.412;10.992;2023-01-28T07:53:18;101197.22;;;7.31;58.72
23433;BME280;41331;45.412;10.992;2023-01-28T07:55:46;101201.06;;;7.01;59.55
23433;BME280;41331;45.412;10.992;2023-01-28T07:58:13;101196.59;;;7.63;57.76
23433;BME280;41331;45.412;10.992;2023-01-28T08:00:41;101210.09;;;7.44;57.55
23433;BME280;41331;45.412;10.992;2023-01-28T08:03:12;101217.84;;;6.69;60.20
23433;BME280;41331;45.412;10.992;2023-01-28T08:05:45;101216.22;;;6.34;61.58
23433;BME280;41331;45.412;10.992;2023-01-28T08:08:13;101222.34;;;6.05;63.84
23433;BME280;41331;45.412;10.992;2023-01-28T08:10:41;101221.00;;;6.42;61.74
23433;BME280;41331;45.412;10.992;2023-01-28T08:13:11;101236.50;;;6.70;59.83
23433;BME280;41331;45.412;10.992;2023-01-28T08:15:39;101232.06;;;6.85;58.17
23433;BME280;41331;45.412;10.992;2023-01-28T08:18:08;101227.03;;;7.02;58.79
23433;BME280;41331;45.412;10.992;2023-01-28T08:20:36;101236.53;;;7.29;57.06
23433;BME280;41331;45.412;10.992;2023-01-28T08:23:14;101237.50;;;7.86;56.63
23433;BME280;41331;45.412;10.992;2023-01-28T08:25:42;101238.97;;;8.40;52.99
23433;BME280;41331;45.412;10.992;2023-01-28T08:28:10;101236.19;;;8.02;53.01
23433;BME280;41331;45.412;10.992;2023-01-28T08:30:38;101246.13;;;7.88;55.34
23433;BME280;41331;45.412;10.992;2023-01-28T08:33:07;101251.34;;;7.84;55.40
23433;BME280;41331;45.412;10.992;2023-01-28T08:35:35;101249.94;;;7.87;55.54
23433;BME280;41331;45.412;10.992;2023-01-28T08:38:04;101250.16;;;8.71;51.85
23433;BME280;41331;45.412;10.992;2023-01-28T08:40:32;101259.88;;;7.72;53.46
23433;BME280;41331;45.412;10.992;2023-01-28T08:43:00;101257.44;;;7.47;54.58
23433;BME280;41331;45.412;10.992;2023-01-28T08:45:28;101259.47;;;7.07;56.92
23433;BME280;41331;45.412;10.992;2023-01-28T08:47:57;101272.97;;;6.78;59.51
23433;BME280;41331;45.412;10.992;2023-01-28T08:50:27;101278.41;;;6.34;58.81
23433;BME280;41331;45.412;10.992;2023-01-28T08:52:57;101280.50;;;6.42;59.73
23433;BME280;41331;45.412;10.992;2023-01-28T08:55:26;101287.09;;;6.26;60.77
23433;BME280;41331;45.412;10.992;2023-01-28T08:57:53;101278.25;;;6.10;61.56
23433;BME280;41331;45.412;10.992;2023-01-28T09:00:24;101287.53;;;5.93;62.64
23433;BME280;41331;45.412;10.992;2023-01-28T09:02:52;101287.16;;;6.10;62.25
23433;BME280;41331;45.412;10.992;2023-01-28T09:05:20;101288.59;;;6.86;60.14
23433;BME280;41331;45.412;10.992;2023-01-28T09:07:47;101283.69;;;7.22;56.99
23433;BME280;41331;45.412;10.992;2023-01-28T09:10:15;101291.47;;;7.82;55.01
23433;BME280;41331;45.412;10.992;2023-01-28T09:12:43;101301.22;;;7.59;53.71
23433;BME280;41331;45.412;10.992;2023-01-28T09:15:11;101299.59;;;9.19;50.89
23433;BME280;41331;45.412;10.992;2023-01-28T09:17:39;101303.97;;;9.48;50.49
23433;BME280;41331;45.412;10.992;2023-01-28T09:20:07;101304.91;;;10.12;49.92
23433;BME280;41331;45.412;10.992;2023-01-28T09:22:35;101300.88;;;10.09;48.19
23433;BME280;41331;45.412;10.992;2023-01-28T09:25:02;101309.50;;;10.39;48.04
23433;BME280;41331;45.412;10.992;2023-01-28T09:27:30;101300.47;;;11.33;46.28
23433;BME280;41331;45.412;10.992;2023-01-28T09:30:00;101297.44;;;11.66;44.20
23433;BME280;41331;45.412;10.992;2023-01-28T09:32:27;101298.31;;;12.50;43.15
23433;BME280;41331;45.412;10.992;2023-01-28T09:34:55;101295.44;;;12.46;40.33
23433;BME280;41331;45.412;10.992;2023-01-28T09:37:22;101305.63;;;11.66;41.56
23433;BME280;41331;45.412;10.992;2023-01-28T09:39:50;101308.78;;;11.59;42.44
23433;BME280;41331;45.412;10.992;2023-01-28T09:42:35;101310.53;;;11.55;43.03
23433;BME280;41331;45.412;10.992;2023-01-28T09:45:14;101309.06;;;12.55;40.95
23433;BME280;41331;45.412;10.992;2023-01-28T09:47:51;101308.88;;;13.29;39.22
23433;BME280;41331;45.412;10.992;2023-01-28T09:50:29;101312.94;;;13.23;39.74
23433;BME280;41331;45.412;10.992;2023-01-28T09:53:24;101307.63;;;13.01;38.87
23433;BME280;41331;45.412;10.992;2023-01-28T09:56:02;101308.44;;;12.84;39.75
23433;BME280;41331;45.412;10.992;2023-01-28T09:58:30;101310.88;;;12.85;39.37
23433;BME280;41331;45.412;10.992;2023-01-28T10:03:44;101318.47;;;10.89;42.40
23433;BME280;41331;45.412;10.992;2023-01-28T10:12:22;101334.06;;;10.61;43.13
23433;BME280;41331;45.412;10.992;2023-01-28T10:17:44;101321.97;;;9.30;45.83
23433;BME280;41331;45.412;10.992;2023-01-28T10:20:32;101316.00;;;9.28;46.88
23433;BME280;41331;45.412;10.992;2023-01-28T10:23:13;101316.22;;;8.99;47.27
23433;BME280;41331;45.412;10.992;2023-01-28T10:25:45;101311.84;;;9.49;47.06
23433;BME280;41331;45.412;10.992;2023-01-28T10:30:46;101314.50;;;10.09;46.55
23433;BME280;41331;45.412;10.992;2023-01-28T10:35:55;101311.94;;;10.13;47.30
23433;BME280;41331;45.412;10.992;2023-01-28T10:38:23;101307.13;;;10.10;46.79
23433;BME280;41331;45.412;10.992;2023-01-28T10:40:54;101310.66;;;9.97;46.42
23433;BME280;41331;45.412;10.992;2023-01-28T10:43:28;101301.19;;;9.80;46.95
23433;BME280;41331;45.412;10.992;2023-01-28T10:46:21;101302.78;;;9.68;48.64
23433;BME280;41331;45.412;10.992;2023-01-28T10:51:35;101290.81;;;9.69;48.60
23433;BME280;41331;45.412;10.992;2023-01-28T10:54:17;101286.28;;;9.50;47.59
23433;BME280;41331;45.412;10.992;2023-01-28T10:56:46;101279.91;;;9.41;47.15
23433;BME280;41331;45.412;10.992;2023-01-28T10:59:34;101281.56;;;9.23;47.08
23433;BME280;41331;45.412;10.992;2023-01-28T11:02:04;101279.06;;;9.27;47.98
23433;BME280;41331;45.412;10.992;2023-01-28T11:04:46;101266.13;;;9.51;46.99
23433;BME280;41331;45.412;10.992;2023-01-28T11:07:18;101273.28;;;9.47;48.35
23433;BME280;41331;45.412;10.992;2023-01-28T11:09:49;101264.38;;;9.28;46.95
23433;BME280;41331;45.412;10.992;2023-01-28T11:12:25;101270.53;;;9.20;48.20
23433;BME280;41331;45.412;10.992;2023-01-28T11:15:01;101261.41;;;9.29;47.56
23433;BME280;41331;45.412;10.992;2023-01-28T11:17:33;101267.66;;;9.57;47.34
23433;BME280;41331;45.412;10.992;2023-01-28T11:20:12;101267.97;;;9.56;47.96
23433;BME280;41331;45.412;10.992;2023-01-28T11:22:44;101264.25;;;9.66;47.26
23433;BME280;41331;45.412;10.992;2023-01-28T11:25:18;101255.47;;;9.41;47.03
23433;BME280;41331;45.412;10.992;2023-01-28T11:27:50;101248.69;;;9.39;48.48
23433;BME280;41331;45.412;10.992;2023-01-28T11:30:33;101250.94;;;9.37;46.83
23433;BME280;41331;45.412;10.992;2023-01-28T11:35:33;101247.31;;;9.69;47.81
23433;BME280;41331;45.412;10.992;2023-01-28T11:38:00;101244.41;;;9.79;46.00
23433;BME280;41331;45.412;10.992;2023-01-28T11:40:28;101237.34;;;9.78;45.76
23433;BME280;41331;45.412;10.992;2023-01-28T11:42:55;101239.56;;;9.62;45.65
23433;BME280;41331;45.412;10.992;2023-01-28T11:45:41;101234.63;;;9.78;45.90
23433;BME280;41331;45.412;10.992;2023-01-28T11:48:29;101235.34;;;9.56;46.09
23433;BME280;41331;45.412;10.992;2023-01-28T11:51:57;101228.78;;;9.29;45.55
23433;BME280;41331;45.412;10.992;2023-01-28T11:57:23;101215.09;;;9.21;45.13
23433;BME280;41331;45.412;10.992;2023-01-28T12:00:03;101222.66;;;9.51;43.35
23433;BME280;41331;45.412;10.992;2023-01-28T12:02:49;101215.81;;;9.68;42.98
23433;BME280;41331;45.412;10.992;2023-01-28T12:08:28;101207.16;;;9.66;42.52
23433;BME280;41331;45.412;10.992;2023-01-28T12:14:09;101199.47;;;9.95;42.91
23433;BME280;41331;45.412;10.992;2023-01-28T12:17:07;101195.66;;;10.19;40.77
23433;BME280;41331;45.412;10.992;2023-01-28T12:25:35;101182.16;;;9.91;44.12
23433;BME280;41331;45.412;10.992;2023-01-28T12:45:21;101188.03;;;9.71;43.83
23433;BME280;41331;45.412;10.992;2023-01-28T12:47:58;101180.78;;;9.52;43.36
23433;BME280;41331;45.412;10.992;2023-01-28T12:50:36;101185.72;;;9.64;43.19
23433;BME280;41331;45.412;10.992;2023-01-28T12:53:22;101184.72;;;9.46;45.08
23433;BME280;41331;45.412;10.992;2023-01-28T12:56:05;101179.97;;;9.52;44.50
23433;BME280;41331;45.412;10.992;2023-01-28T12:59:03;101180.59;;;9.49;45.89
23433;BME280;41331;45.412;10.992;2023-01-28T13:04:53;101169.47;;;9.86;44.71
23433;BME280;41331;45.412;10.992;2023-01-28T13:07:53;101172.13;;;10.14;46.10
23433;BME280;41331;45.412;10.992;2023-01-28T13:10:26;101169.56;;;10.31;42.90
23433;BME280;41331;45.412;10.992;2023-01-28T13:12:55;101170.09;;;10.20;43.30
23433;BME280;41331;45.412;10.992;2023-01-28T13:15:25;101171.63;;;10.12;43.57
23433;BME280;41331;45.412;10.992;2023-01-28T13:21:02;101180.66;;;10.21;43.68
23433;BME280;41331;45.412;10.992;2023-01-28T13:28:45;101181.97;;;9.74;43.23
23433;BME280;41331;45.412;10.992;2023-01-28T13:31:19;101186.50;;;9.78;44.72
23433;BME280;41331;45.412;10.992;2023-01-28T13:34:01;101185.34;;;9.93;43.03
23433;BME280;41331;45.412;10.992;2023-01-28T13:36:36;101190.53;;;9.81;44.17
23433;BME280;41331;45.412;10.992;2023-01-28T13:41:48;101194.84;;;9.96;44.59
23433;BME280;41331;45.412;10.992;2023-01-28T13:44:31;101197.69;;;9.77;45.26
23433;BME280;41331;45.412;10.992;2023-01-28T13:47:17;101193.88;;;9.50;44.51
23433;BME280;41331;45.412;10.992;2023-01-28T13:49:53;101191.47;;;9.35;46.40
23433;BME280;41331;45.412;10.992;2023-01-28T13:52:25;101200.28;;;9.13;45.36
23433;BME280;41331;45.412;10.992;2023-01-28T13:55:26;101194.66;;;9.23;45.67
23433;BME280;41331;45.412;10.992;2023-01-28T14:09:14;101211.53;;;9.06;44.60
23433;BME280;41331;45.412;10.992;2023-01-28T14:17:02;101215.91;;;8.75;44.79
23433;BME280;41331;45.412;10.992;2023-01-28T14:19:37;101216.69;;;8.75;45.66
23433;BME280;41331;45.412;10.992;2023-01-28T14:22:09;101218.81;;;8.78;44.86
23433;BME280;41331;45.412;10.992;2023-01-28T14:24:37;101216.34;;;8.96;44.56
23433;BME280;41331;45.412;10.992;2023-01-28T14:27:27;101220.84;;;8.87;45.78
23433;BME280;41331;45.412;10.992;2023-01-28T14:30:24;101229.00;;;8.87;46.19
23433;BME280;41331;45.412;10.992;2023-01-28T14:32:56;101225.59;;;8.95;45.77
23433;BME280;41331;45.412;10.992;2023-01-28T14:35:32;101222.28;;;8.84;44.29
23433;BME280;41331;45.412;10.992;2023-01-28T14:38:06;101220.84;;;8.87;45.76
23433;BME280;41331;45.412;10.992;2023-01-28T14:40:38;101218.13;;;8.87;46.73
23433;BME280;41331;45.412;10.992;2023-01-28T14:43:10;101223.66;;;8.81;44.61
23433;BME280;41331;45.412;10.992;2023-01-28T14:48:45;101237.47;;;8.66;45.09
23433;BME280;41331;45.412;10.992;2023-01-28T14:59:46;101247.09;;;8.40;47.67
23433;BME280;41331;45.412;10.992;2023-01-28T15:02:21;101245.53;;;8.52;47.75
23433;BME280;41331;45.412;10.992;2023-01-28T15:04:51;101247.25;;;8.48;46.73
23433;BME280;41331;45.412;10.992;2023-01-28T15:07:25;101248.97;;;8.58;47.55
23433;BME280;41331;45.412;10.992;2023-01-28T15:10:03;101250.16;;;8.71;46.69
23433;BME280;41331;45.412;10.992;2023-01-28T15:12:36;101247.03;;;8.64;46.95
23433;BME280;41331;45.412;10.992;2023-01-28T15:15:18;101248.34;;;8.47;46.57
23433;BME280;41331;45.412;10.992;2023-01-28T15:17:47;101248.84;;;8.30;47.15
23433;BME280;41331;45.412;10.992;2023-01-28T15:20:17;101256.53;;;8.23;47.07
23433;BME280;41331;45.412;10.992;2023-01-28T15:22:45;101254.31;;;8.25;46.99